sensor_id;sensor_type;location;lat;lon;timestamp;temperature;humidity
7516;DHT22;3799;47.184;8.538;2023-01-15T00:02:17;8.40;99.90
7516;DHT22;3799;47.184;8.538;2023-01-15T00:04:44;8.30;99.90
7516;DHT22;3799;47.184;8.538;2023-01-15T00:07:11;8.30;99.90
7516;DHT22;3799;47.184;8.538;2023-01-15T00:09:38;8.30;99.90
7516;DHT22;3799;47.184;8.538;2023-01-15T00:12:05;8.50;99.90
7516;DHT22;3799;47.184;8.538;2023-01-15T00:14:32;8.10;99.90
7516;DHT22;3799;47.184;8.538;2023-01-15T00:16:59;8.10;99.90
7516;DHT22;3799;47.184;8.538;2023-01-15T00:19:26;8.40;99.90
7516;DHT22;3799;47.184;8.538;2023-01-15T00:21:53;8.50;99.90
7516;DHT22;3799;47.184;8.538;2023-01-15T00:24:20;8.60;99.90
7516;DHT22;3799;47.184;8.538;2023-01-15T00:27:11;8.40;99.90
7516;DHT22;3799;47.184;8.538;2023-01-15T00:29:57;8.30;99.90
7516;DHT22;3799;47.184;8.538;2023-01-15T00:32:24;8.30;99.90
7516;DHT22;3799;47.184;8.538;2023-01-15T00:34:54;8.50;99.90
7516;DHT22;3799;47.184;8.538;2023-01-15T00:37:21;8.40;99.90
7516;DHT22;3799;47.184;8.538;2023-01-15T00:39:48;8.60;99.90
7516;DHT22;3799;47.184;8.538;2023-01-15T00:42:16;8.40;99.90
7516;DHT22;3799;47.184;8.538;2023-01-15T00:44:43;8.50;99.90
7516;DHT22;3799;47.184;8.538;2023-01-15T00:47:10;8.30;99.90
7516;DHT22;3799;47.184;8.538;2023-01-15T00:49:41;8.40;99.90
7516;DHT22;3799;47.184;8.538;2023-01-15T00:52:09;8.00;99.90
7516;DHT22;3799;47.184;8.538;2023-01-15T00:54:36;8.40;99.90
7516;DHT22;3799;47.184;8.538;2023-01-15T00:57:04;8.20;99.90
7516;DHT22;3799;47.184;8.538;2023-01-15T00:59:31;8.20;99.90
7516;DHT22;3799;47.184;8.538;2023-01-15T01:01:58;8.20;99.90
7516;DHT22;3799;47.184;8.538;2023-01-15T01:04:25;8.10;99.90
7516;DHT22;3799;47.184;8.538;2023-01-15T01:06:59;8.40;99.90
7516;DHT22;3799;47.184;8.538;2023-01-15T01:09:26;8.20;99.90
7516;DHT22;3799;47.184;8.538;2023-01-15T01:11:53;8.20;99.90
7516;DHT22;3799;47.184;8.538;2023-01-15T01:14:20;8.30;99.90
7516;DHT22;3799;47.184;8.538;2023-01-15T01:16:50;8.10;99.90
7516;DHT22;3799;47.184;8.538;2023-01-15T01:19:20;8.40;99.90
7516;DHT22;3799;47.184;8.538;2023-01-15T01:21:48;8.30;99.90
7516;DHT22;3799;47.184;8.538;2023-01-15T01:24:18;8.30;99.90
7516;DHT22;3799;47.184;8.538;2023-01-15T01:26:46;8.40;99.90
7516;DHT22;3799;47.184;8.538;2023-01-15T01:29:15;8.40;99.90
7516;DHT22;3799;47.184;8.538;2023-01-15T01:31:43;8.20;99.90
7516;DHT22;3799;47.184;8.538;2023-01-15T01:34:12;8.30;99.90
7516;DHT22;3799;47.184;8.538;2023-01-15T01:36:41;8.60;99.90
7516;DHT22;3799;47.184;8.538;2023-01-15T01:39:13;8.50;99.90
7516;DHT22;3799;47.184;8.538;2023-01-15T01:41:40;8.10;99.90
7516;DHT22;3799;47.184;8.538;2023-01-15T01:47:02;8.30;99.90
7516;DHT22;3799;47.184;8.538;2023-01-15T01:49:31;8.20;99.90
7516;DHT22;3799;47.184;8.538;2023-01-15T01:52:02;8.30;99.90
7516;DHT22;3799;47.184;8.538;2023-01-15T01:54:30;8.20;99.90
7516;DHT22;3799;47.184;8.538;2023-01-15T01:57:04;8.20;99.90
7516;DHT22;3799;47.184;8.538;2023-01-15T01:59:32;8.60;99.90
7516;DHT22;3799;47.184;8.538;2023-01-15T02:01:59;8.50;99.90
7516;DHT22;3799;47.184;8.538;2023-01-15T02:04:28;8.60;99.90
7516;DHT22;3799;47.184;8.538;2023-01-15T02:06:56;8.30;99.90
7516;DHT22;3799;47.184;8.538;2023-01-15T02:09:24;8.50;99.90
7516;DHT22;3799;47.184;8.538;2023-01-15T02:11:56;8.70;99.90
7516;DHT22;3799;47.184;8.538;2023-01-15T02:14:42;8.60;99.90
7516;DHT22;3799;47.184;8.538;2023-01-15T02:17:22;8.70;99.90
7516;DHT22;3799;47.184;8.538;2023-01-15T02:28:32;8.60;99.90
7516;DHT22;3799;47.184;8.538;2023-01-15T02:31:52;8.60;99.90
7516;DHT22;3799;47.184;8.538;2023-01-15T02:34:23;8.50;99.90
7516;DHT22;3799;47.184;8.538;2023-01-15T02:37:03;8.60;99.90
7516;DHT22;3799;47.184;8.538;2023-01-15T02:39:34;8.50;99.90
7516;DHT22;3799;47.184;8.538;2023-01-15T02:42:02;8.40;99.90
7516;DHT22;3799;47.184;8.538;2023-01-15T02:44:31;8.60;99.90
7516;DHT22;3799;47.184;8.538;2023-01-15T02:47:00;8.60;99.90
7516;DHT22;3799;47.184;8.538;2023-01-15T02:49:29;8.50;99.90
7516;DHT22;3799;47.184;8.538;2023-01-15T02:52:06;8.70;99.90
7516;DHT22;3799;47.184;8.538;2023-01-15T02:54:43;8.60;99.90
7516;DHT22;3799;47.184;8.538;2023-01-15T02:57:13;8.70;99.90
7516;DHT22;3799;47.184;8.538;2023-01-15T02:59:46;8.50;99.90
7516;DHT22;3799;47.184;8.538;2023-01-15T03:02:18;8.90;99.90
7516;DHT22;3799;47.184;8.538;2023-01-15T03:04:55;8.90;99.90
7516;DHT22;3799;47.184;8.538;2023-01-15T03:07:31;8.90;99.90
7516;DHT22;3799;47.184;8.538;2023-01-15T03:10:02;8.90;99.90
7516;DHT22;3799;47.184;8.538;2023-01-15T03:12:49;8.80;99.90
7516;DHT22;3799;47.184;8.538;2023-01-15T03:15:37;8.80;99.90
7516;DHT22;3799;47.184;8.538;2023-01-15T03:18:27;9.00;99.90
7516;DHT22;3799;47.184;8.538;2023-01-15T03:20:59;9.30;99.90
7516;DHT22;3799;47.184;8.538;2023-01-15T03:23:28;9.20;99.90
7516;DHT22;3799;47.184;8.538;2023-01-15T03:25:56;9.20;99.90
7516;DHT22;3799;47.184;8.538;2023-01-15T03:28:26;8.90;99.90
7516;DHT22;3799;47.184;8.538;2023-01-15T03:30:55;8.90;99.90
7516;DHT22;3799;47.184;8.538;2023-01-15T03:33:22;8.90;99.90
7516;DHT22;3799;47.184;8.538;2023-01-15T03:35:57;8.80;99.90
7516;DHT22;3799;47.184;8.538;2023-01-15T03:38:30;8.80;99.90
7516;DHT22;3799;47.184;8.538;2023-01-15T03:41:29;8.90;99.90
7516;DHT22;3799;47.184;8.538;2023-01-15T03:49:37;8.90;99.90
7516;DHT22;3799;47.184;8.538;2023-01-15T03:55:13;8.80;99.90
7516;DHT22;3799;47.184;8.538;2023-01-15T03:57:48;9.00;99.90
7516;DHT22;3799;47.184;8.538;2023-01-15T04:02:50;8.90;99.90
7516;DHT22;3799;47.184;8.538;2023-01-15T04:05:18;9.20;99.90
7516;DHT22;3799;47.184;8.538;2023-01-15T04:07:47;9.30;99.90
7516;DHT22;3799;47.184;8.538;2023-01-15T04:10:15;9.00;99.90
7516;DHT22;3799;47.184;8.538;2023-01-15T04:12:42;9.20;99.90
7516;DHT22;3799;47.184;8.538;2023-01-15T04:15:10;9.00;99.90
7516;DHT22;3799;47.184;8.538;2023-01-15T04:17:38;9.20;99.90
7516;DHT22;3799;47.184;8.538;2023-01-15T04:20:05;8.70;99.90
7516;DHT22;3799;47.184;8.538;2023-01-15T04:22:33;8.80;99.90
7516;DHT22;3799;47.184;8.538;2023-01-15T04:25:05;8.90;99.90
7516;DHT22;3799;47.184;8.538;2023-01-15T04:27:33;8.80;99.90
7516;DHT22;3799;47.184;8.538;2023-01-15T04:30:00;8.90;99.90
7516;DHT22;3799;47.184;8.538;2023-01-15T04:32:27;9.10;99.90
7516;DHT22;3799;47.184;8.538;2023-01-15T04:34:54;8.90;99.90
7516;DHT22;3799;47.184;8.538;2023-01-15T04:37:21;9.00;99.90
7516;DHT22;3799;47.184;8.538;2023-01-15T04:39:48;9.00;99.90
7516;DHT22;3799;47.184;8.538;2023-01-15T04:42:15;9.10;99.90
7516;DHT22;3799;47.184;8.538;2023-01-15T04:45:01;9.00;99.90
7516;DHT22;3799;47.184;8.538;2023-01-15T04:47:30;8.90;99.90
7516;DHT22;3799;47.184;8.538;2023-01-15T04:49:57;9.00;99.90
7516;DHT22;3799;47.184;8.538;2023-01-15T04:52:24;8.90;99.90
7516;DHT22;3799;47.184;8.538;2023-01-15T04:54:53;8.80;99.90
7516;DHT22;3799;47.184;8.538;2023-01-15T04:57:21;9.00;99.90
7516;DHT22;3799;47.184;8.538;2023-01-15T04:59:48;8.90;99.90
7516;DHT22;3799;47.184;8.538;2023-01-15T05:02:16;8.50;99.90
7516;DHT22;3799;47.184;8.538;2023-01-15T05:04:43;8.90;99.90
7516;DHT22;3799;47.184;8.538;2023-01-15T05:07:10;8.70;99.90
7516;DHT22;3799;47.184;8.538;2023-01-15T05:09:38;8.70;99.90
7516;DHT22;3799;47.184;8.538;2023-01-15T05:12:05;8.60;99.90
7516;DHT22;3799;47.184;8.538;2023-01-15T05:14:32;8.70;99.90
7516;DHT22;3799;47.184;8.538;2023-01-15T05:16:59;8.80;99.90
7516;DHT22;3799;47.184;8.538;2023-01-15T05:19:26;8.80;99.90
7516;DHT22;3799;47.184;8.538;2023-01-15T05:21:53;8.60;99.90
7516;DHT22;3799;47.184;8.538;2023-01-15T05:24:21;8.70;99.90
7516;DHT22;3799;47.184;8.538;2023-01-15T05:26:48;8.60;99.90
7516;DHT22;3799;47.184;8.538;2023-01-15T05:29:15;8.80;99.90
7516;DHT22;3799;47.184;8.538;2023-01-15T05:31:46;8.70;99.90
7516;DHT22;3799;47.184;8.538;2023-01-15T05:34:14;8.40;99.90
7516;DHT22;3799;47.184;8.538;2023-01-15T05:36:45;8.60;99.90
7516;DHT22;3799;47.184;8.538;2023-01-15T05:39:12;8.50;99.90
7516;DHT22;3799;47.184;8.538;2023-01-15T05:41:39;8.60;99.90
7516;DHT22;3799;47.184;8.538;2023-01-15T05:44:26;8.40;99.90
7516;DHT22;3799;47.184;8.538;2023-01-15T05:46:59;8.60;99.90
7516;DHT22;3799;47.184;8.538;2023-01-15T05:49:28;8.20;99.90
7516;DHT22;3799;47.184;8.538;2023-01-15T05:51:58;8.50;99.90
7516;DHT22;3799;47.184;8.538;2023-01-15T05:54:29;8.30;99.90
7516;DHT22;3799;47.184;8.538;2023-01-15T05:56:57;8.00;99.90
7516;DHT22;3799;47.184;8.538;2023-01-15T05:59:26;8.10;99.90
7516;DHT22;3799;47.184;8.538;2023-01-15T06:01:54;8.10;99.90
7516;DHT22;3799;47.184;8.538;2023-01-15T06:04:22;8.10;99.90
7516;DHT22;3799;47.184;8.538;2023-01-15T06:06:54;8.00;99.90
7516;DHT22;3799;47.184;8.538;2023-01-15T06:09:21;8.10;99.90
7516;DHT22;3799;47.184;8.538;2023-01-15T06:11:49;8.10;99.90
7516;DHT22;3799;47.184;8.538;2023-01-15T06:14:17;8.10;99.90
7516;DHT22;3799;47.184;8.538;2023-01-15T06:16:46;8.00;99.90
7516;DHT22;3799;47.184;8.538;2023-01-15T06:19:13;8.30;99.90
7516;DHT22;3799;47.184;8.538;2023-01-15T06:21:40;8.10;99.90
7516;DHT22;3799;47.184;8.538;2023-01-15T06:24:08;8.00;99.90
7516;DHT22;3799;47.184;8.538;2023-01-15T06:26:36;8.30;99.90
7516;DHT22;3799;47.184;8.538;2023-01-15T06:29:04;8.40;99.90
7516;DHT22;3799;47.184;8.538;2023-01-15T06:31:31;8.50;99.90
7516;DHT22;3799;47.184;8.538;2023-01-15T06:34:00;8.50;99.90
7516;DHT22;3799;47.184;8.538;2023-01-15T06:36:28;8.60;99.90
7516;DHT22;3799;47.184;8.538;2023-01-15T06:39:01;8.50;99.90
7516;DHT22;3799;47.184;8.538;2023-01-15T06:41:31;8.60;99.90
7516;DHT22;3799;47.184;8.538;2023-01-15T06:44:17;8.50;99.90
7516;DHT22;3799;47.184;8.538;2023-01-15T06:47:13;8.60;99.90
7516;DHT22;3799;47.184;8.538;2023-01-15T06:49:52;8.30;99.90
7516;DHT22;3799;47.184;8.538;2023-01-15T06:52:27;8.50;99.90
7516;DHT22;3799;47.184;8.538;2023-01-15T06:54:55;8.40;99.90
7516;DHT22;3799;47.184;8.538;2023-01-15T06:57:22;8.60;99.90
7516;DHT22;3799;47.184;8.538;2023-01-15T06:59:50;8.80;99.90
7516;DHT22;3799;47.184;8.538;2023-01-15T07:02:17;8.60;99.90
7516;DHT22;3799;47.184;8.538;2023-01-15T07:04:45;8.70;99.90
7516;DHT22;3799;47.184;8.538;2023-01-15T07:07:18;8.60;99.90
7516;DHT22;3799;47.184;8.538;2023-01-15T07:09:45;8.70;99.90
7516;DHT22;3799;47.184;8.538;2023-01-15T07:12:12;8.60;99.90
7516;DHT22;3799;47.184;8.538;2023-01-15T07:14:39;8.70;99.90
7516;DHT22;3799;47.184;8.538;2023-01-15T07:17:06;8.80;99.90
7516;DHT22;3799;47.184;8.538;2023-01-15T07:19:34;8.70;99.90
7516;DHT22;3799;47.184;8.538;2023-01-15T07:22:01;8.80;99.90
7516;DHT22;3799;47.184;8.538;2023-01-15T07:24:29;8.90;99.90
7516;DHT22;3799;47.184;8.538;2023-01-15T07:26:56;8.70;99.90
7516;DHT22;3799;47.184;8.538;2023-01-15T07:29:23;8.60;99.90
7516;DHT22;3799;47.184;8.538;2023-01-15T07:31:50;8.90;99.90
7516;DHT22;3799;47.184;8.538;2023-01-15T07:34:18;8.60;99.90
7516;DHT22;3799;47.184;8.538;2023-01-15T07:36:45;8.90;99.90
7516;DHT22;3799;47.184;8.538;2023-01-15T07:39:12;8.80;99.90
7516;DHT22;3799;47.184;8.538;2023-01-15T07:41:39;8.70;99.90
7516;DHT22;3799;47.184;8.538;2023-01-15T07:44:25;8.70;99.90
7516;DHT22;3799;47.184;8.538;2023-01-15T07:47:16;8.80;99.90
7516;DHT22;3799;47.184;8.538;2023-01-15T07:50:05;9.00;99.90
7516;DHT22;3799;47.184;8.538;2023-01-15T07:52:32;8.90;99.90
7516;DHT22;3799;47.184;8.538;2023-01-15T07:55:00;8.70;99.90
7516;DHT22;3799;47.184;8.538;2023-01-15T07:57:27;8.80;99.90
7516;DHT22;3799;47.184;8.538;2023-01-15T07:59:54;8.90;99.90
7516;DHT22;3799;47.184;8.538;2023-01-15T08:02:21;8.70;99.90
7516;DHT22;3799;47.184;8.538;2023-01-15T08:04:54;8.90;99.90
7516;DHT22;3799;47.184;8.538;2023-01-15T08:07:21;9.00;99.90
7516;DHT22;3799;47.184;8.538;2023-01-15T08:09:48;8.80;99.90
7516;DHT22;3799;47.184;8.538;2023-01-15T08:12:23;8.90;99.90
7516;DHT22;3799;47.184;8.538;2023-01-15T08:15:09;9.10;99.90
7516;DHT22;3799;47.184;8.538;2023-01-15T08:17:42;8.80;99.90
7516;DHT22;3799;47.184;8.538;2023-01-15T08:20:21;8.80;99.90
7516;DHT22;3799;47.184;8.538;2023-01-15T08:22:48;9.20;99.90
7516;DHT22;3799;47.184;8.538;2023-01-15T08:25:24;9.00;99.90
7516;DHT22;3799;47.184;8.538;2023-01-15T08:27:52;8.90;99.90
7516;DHT22;3799;47.184;8.538;2023-01-15T08:30:22;9.10;99.90
7516;DHT22;3799;47.184;8.538;2023-01-15T08:32:50;9.00;99.90
7516;DHT22;3799;47.184;8.538;2023-01-15T08:35:17;9.10;99.90
7516;DHT22;3799;47.184;8.538;2023-01-15T08:37:44;9.30;99.90
7516;DHT22;3799;47.184;8.538;2023-01-15T08:40:11;9.30;99.90
7516;DHT22;3799;47.184;8.538;2023-01-15T08:42:39;9.30;99.90
7516;DHT22;3799;47.184;8.538;2023-01-15T08:45:07;9.50;99.90
7516;DHT22;3799;47.184;8.538;2023-01-15T08:47:34;9.50;99.90
7516;DHT22;3799;47.184;8.538;2023-01-15T08:50:04;9.50;99.90
7516;DHT22;3799;47.184;8.538;2023-01-15T08:52:32;9.20;99.90
7516;DHT22;3799;47.184;8.538;2023-01-15T08:54:59;9.60;99.90
7516;DHT22;3799;47.184;8.538;2023-01-15T08:57:37;9.30;99.90
7516;DHT22;3799;47.184;8.538;2023-01-15T09:00:05;9.30;99.90
7516;DHT22;3799;47.184;8.538;2023-01-15T09:02:32;9.70;99.90
7516;DHT22;3799;47.184;8.538;2023-01-15T09:04:59;9.70;99.90
7516;DHT22;3799;47.184;8.538;2023-01-15T09:07:26;9.40;99.90
7516;DHT22;3799;47.184;8.538;2023-01-15T09:09:53;9.20;99.90
7516;DHT22;3799;47.184;8.538;2023-01-15T09:12:20;9.60;99.90
7516;DHT22;3799;47.184;8.538;2023-01-15T09:14:51;9.60;99.90
7516;DHT22;3799;47.184;8.538;2023-01-15T09:17:28;9.30;99.90
7516;DHT22;3799;47.184;8.538;2023-01-15T09:19:55;9.40;99.90
7516;DHT22;3799;47.184;8.538;2023-01-15T09:22:33;9.30;99.90
7516;DHT22;3799;47.184;8.538;2023-01-15T09:25:04;9.30;99.90
7516;DHT22;3799;47.184;8.538;2023-01-15T09:27:31;9.00;99.90
7516;DHT22;3799;47.184;8.538;2023-01-15T09:30:00;9.10;99.90
7516;DHT22;3799;47.184;8.538;2023-01-15T09:32:30;9.00;99.90
7516;DHT22;3799;47.184;8.538;2023-01-15T09:34:57;8.70;99.90
7516;DHT22;3799;47.184;8.538;2023-01-15T09:37:24;8.60;99.90
7516;DHT22;3799;47.184;8.538;2023-01-15T09:39:51;8.70;99.90
7516;DHT22;3799;47.184;8.538;2023-01-15T09:42:35;8.40;99.90
7516;DHT22;3799;47.184;8.538;2023-01-15T09:45:30;8.30;99.90
7516;DHT22;3799;47.184;8.538;2023-01-15T09:48:28;8.30;99.90
7516;DHT22;3799;47.184;8.538;2023-01-15T09:53:53;8.00;99.90
7516;DHT22;3799;47.184;8.538;2023-01-15T09:56:25;7.60;99.90
7516;DHT22;3799;47.184;8.538;2023-01-15T09:58:55;7.60;99.90
7516;DHT22;3799;47.184;8.538;2023-01-15T10:01:28;7.50;99.90
7516;DHT22;3799;47.184;8.538;2023-01-15T10:04:14;7.60;99.90
7516;DHT22;3799;47.184;8.538;2023-01-15T10:06:45;7.40;99.90
7516;DHT22;3799;47.184;8.538;2023-01-15T10:09:21;7.40;99.90
7516;DHT22;3799;47.184;8.538;2023-01-15T10:11:59;7.20;99.90
7516;DHT22;3799;47.184;8.538;2023-01-15T10:17:44;7.10;99.90
7516;DHT22;3799;47.184;8.538;2023-01-15T10:20:23;7.40;99.90
7516;DHT22;3799;47.184;8.538;2023-01-15T10:23:05;7.40;99.90
7516;DHT22;3799;47.184;8.538;2023-01-15T10:25:50;7.00;99.90
7516;DHT22;3799;47.184;8.538;2023-01-15T10:28:29;7.00;99.90
7516;DHT22;3799;47.184;8.538;2023-01-15T10:31:05;7.10;99.90
7516;DHT22;3799;47.184;8.538;2023-01-15T10:33:40;7.00;99.90
7516;DHT22;3799;47.184;8.538;2023-01-15T10:36:21;6.90;99.90
7516;DHT22;3799;47.184;8.538;2023-01-15T10:39:01;6.80;99.90
7516;DHT22;3799;47.184;8.538;2023-01-15T10:41:58;7.00;99.90
7516;DHT22;3799;47.184;8.538;2023-01-15T10:44:42;6.70;99.90
7516;DHT22;3799;47.184;8.538;2023-01-15T10:47:16;6.80;99.90
7516;DHT22;3799;47.184;8.538;2023-01-15T10:49:44;6.80;99.90
7516;DHT22;3799;47.184;8.538;2023-01-15T10:52:24;7.00;99.90
7516;DHT22;3799;47.184;8.538;2023-01-15T11:00:36;6.70;99.90
7516;DHT22;3799;47.184;8.538;2023-01-15T11:03:12;6.70;99.90
7516;DHT22;3799;47.184;8.538;2023-01-15T11:05:42;6.60;99.90
7516;DHT22;3799;47.184;8.538;2023-01-15T11:08:23;7.00;99.90
7516;DHT22;3799;47.184;8.538;2023-01-15T11:11:33;6.70;99.90
7516;DHT22;3799;47.184;8.538;2023-01-15T11:14:19;6.80;99.90
7516;DHT22;3799;47.184;8.538;2023-01-15T11:17:18;6.70;99.90
7516;DHT22;3799;47.184;8.538;2023-01-15T11:20:32;6.50;99.90
7516;DHT22;3799;47.184;8.538;2023-01-15T11:23:07;6.40;99.90
7516;DHT22;3799;47.184;8.538;2023-01-15T11:25:35;6.50;99.90
7516;DHT22;3799;47.184;8.538;2023-01-15T11:28:06;6.50;99.90
7516;DHT22;3799;47.184;8.538;2023-01-15T11:30:36;6.70;99.90
7516;DHT22;3799;47.184;8.538;2023-01-15T11:33:05;6.30;99.90
7516;DHT22;3799;47.184;8.538;2023-01-15T11:35:33;6.30;99.90
7516;DHT22;3799;47.184;8.538;2023-01-15T11:38:02;6.30;99.90
7516;DHT22;3799;47.184;8.538;2023-01-15T11:40:29;6.40;99.90
7516;DHT22;3799;47.184;8.538;2023-01-15T11:42:56;6.20;99.90
7516;DHT22;3799;47.184;8.538;2023-01-15T11:46:00;6.40;99.90
7516;DHT22;3799;47.184;8.538;2023-01-15T11:48:46;6.30;99.90
7516;DHT22;3799;47.184;8.538;2023-01-15T11:51:39;6.30;99.90
7516;DHT22;3799;47.184;8.538;2023-01-15T11:54:11;6.30;99.90
7516;DHT22;3799;47.184;8.538;2023-01-15T11:56:44;6.10;99.90
7516;DHT22;3799;47.184;8.538;2023-01-15T11:59:17;6.40;99.90
7516;DHT22;3799;47.184;8.538;2023-01-15T12:01:55;6.20;99.90
7516;DHT22;3799;47.184;8.538;2023-01-15T12:04:30;6.30;99.90
7516;DHT22;3799;47.184;8.538;2023-01-15T12:06:59;6.20;99.90
7516;DHT22;3799;47.184;8.538;2023-01-15T12:12:35;6.10;99.90
7516;DHT22;3799;47.184;8.538;2023-01-15T12:15:11;5.90;99.90
7516;DHT22;3799;47.184;8.538;2023-01-15T12:20:56;6.10;99.90
7516;DHT22;3799;47.184;8.538;2023-01-15T12:26:27;5.80;99.90
7516;DHT22;3799;47.184;8.538;2023-01-15T12:32:12;5.60;99.90
7516;DHT22;3799;47.184;8.538;2023-01-15T12:34:54;5.70;99.90
7516;DHT22;3799;47.184;8.538;2023-01-15T12:37:30;5.80;99.90
7516;DHT22;3799;47.184;8.538;2023-01-15T12:40:03;5.50;99.90
7516;DHT22;3799;47.184;8.538;2023-01-15T12:42:35;5.60;99.90
7516;DHT22;3799;47.184;8.538;2023-01-15T12:45:26;5.40;99.90
7516;DHT22;3799;47.184;8.538;2023-01-15T12:48:04;5.40;99.90
7516;DHT22;3799;47.184;8.538;2023-01-15T12:50:44;5.20;99.90
7516;DHT22;3799;47.184;8.538;2023-01-15T12:56:11;5.10;99.90
7516;DHT22;3799;47.184;8.538;2023-01-15T12:59:06;5.40;99.90
7516;DHT22;3799;47.184;8.538;2023-01-15T13:04:49;5.10;99.90
7516;DHT22;3799;47.184;8.538;2023-01-15T13:07:28;5.40;99.90
7516;DHT22;3799;47.184;8.538;2023-01-15T13:10:12;5.10;99.90
7516;DHT22;3799;47.184;8.538;2023-01-15T13:12:42;5.30;99.90
7516;DHT22;3799;47.184;8.538;2023-01-15T13:15:14;5.40;99.90
7516;DHT22;3799;47.184;8.538;2023-01-15T13:18:04;5.10;99.90
7516;DHT22;3799;47.184;8.538;2023-01-15T13:20:50;5.30;99.90
7516;DHT22;3799;47.184;8.538;2023-01-15T13:31:50;4.70;99.90
7516;DHT22;3799;47.184;8.538;2023-01-15T13:37:10;5.10;99.90
7516;DHT22;3799;47.184;8.538;2023-01-15T13:39:41;5.10;99.90
7516;DHT22;3799;47.184;8.538;2023-01-15T13:42:21;4.90;99.90
7516;DHT22;3799;47.184;8.538;2023-01-15T13:45:21;4.70;99.90
7516;DHT22;3799;47.184;8.538;2023-01-15T13:47:55;4.80;99.90
7516;DHT22;3799;47.184;8.538;2023-01-15T13:50:32;4.80;99.90
7516;DHT22;3799;47.184;8.538;2023-01-15T13:53:22;4.70;99.90
7516;DHT22;3799;47.184;8.538;2023-01-15T13:56:00;5.00;99.90
7516;DHT22;3799;47.184;8.538;2023-01-15T13:58:33;4.90;99.90
7516;DHT22;3799;47.184;8.538;2023-01-15T14:06:46;4.80;99.90
7516;DHT22;3799;47.184;8.538;2023-01-15T14:15:01;4.50;99.90
7516;DHT22;3799;47.184;8.538;2023-01-15T14:20:36;4.50;99.90
7516;DHT22;3799;47.184;8.538;2023-01-15T14:28:31;4.70;99.90
7516;DHT22;3799;47.184;8.538;2023-01-15T14:36:25;4.90;99.90
7516;DHT22;3799;47.184;8.538;2023-01-15T14:38:59;5.30;99.90
7516;DHT22;3799;47.184;8.538;2023-01-15T14:41:34;5.00;99.90
7516;DHT22;3799;47.184;8.538;2023-01-15T14:44:28;5.00;99.90
7516;DHT22;3799;47.184;8.538;2023-01-15T14:47:02;5.30;99.90
7516;DHT22;3799;47.184;8.538;2023-01-15T14:49:44;5.10;99.90
7516;DHT22;3799;47.184;8.538;2023-01-15T14:52:22;5.10;99.90
7516;DHT22;3799;47.184;8.538;2023-01-15T14:54:51;5.00;99.90
7516;DHT22;3799;47.184;8.538;2023-01-15T14:57:21;5.00;99.90
7516;DHT22;3799;47.184;8.538;2023-01-15T14:59:58;5.30;99.90
7516;DHT22;3799;47.184;8.538;2023-01-15T15:02:34;5.20;99.90
7516;DHT22;3799;47.184;8.538;2023-01-15T15:05:12;5.20;99.90
7516;DHT22;3799;47.184;8.538;2023-01-15T15:07:44;5.00;99.90
7516;DHT22;3799;47.184;8.538;2023-01-15T15:10:31;5.10;99.90
7516;DHT22;3799;47.184;8.538;2023-01-15T15:13:27;5.30;99.90
7516;DHT22;3799;47.184;8.538;2023-01-15T15:16:18;4.90;99.90
7516;DHT22;3799;47.184;8.538;2023-01-15T15:18:57;5.20;99.90
7516;DHT22;3799;47.184;8.538;2023-01-15T15:21:30;5.20;99.90
7516;DHT22;3799;47.184;8.538;2023-01-15T15:24:06;5.40;99.90
7516;DHT22;3799;47.184;8.538;2023-01-15T15:26:38;5.30;99.90
7516;DHT22;3799;47.184;8.538;2023-01-15T15:31:53;6.00;99.90
7516;DHT22;3799;47.184;8.538;2023-01-15T15:34:30;6.20;99.90
7516;DHT22;3799;47.184;8.538;2023-01-15T15:37:01;7.20;99.90
7516;DHT22;3799;47.184;8.538;2023-01-15T15:39:40;7.80;99.90
7516;DHT22;3799;47.184;8.538;2023-01-15T15:42:29;8.50;99.90
7516;DHT22;3799;47.184;8.538;2023-01-15T15:45:21;9.20;99.90
7516;DHT22;3799;47.184;8.538;2023-01-15T15:54:13;12.00;98.20
7516;DHT22;3799;47.184;8.538;2023-01-15T15:59:35;11.90;94.30
7516;DHT22;3799;47.184;8.538;2023-01-15T16:02:24;11.20;94.30
7516;DHT22;3799;47.184;8.538;2023-01-15T16:04:57;9.80;96.80
7516;DHT22;3799;47.184;8.538;2023-01-15T16:07:32;8.90;99.90
7516;DHT22;3799;47.184;8.538;2023-01-15T16:10:20;7.90;99.90
7516;DHT22;3799;47.184;8.538;2023-01-15T16:12:52;7.30;99.90
7516;DHT22;3799;47.184;8.538;2023-01-15T16:15:27;6.90;99.90
7516;DHT22;3799;47.184;8.538;2023-01-15T16:17:56;6.40;99.90
7516;DHT22;3799;47.184;8.538;2023-01-15T16:20:24;6.10;99.90
7516;DHT22;3799;47.184;8.538;2023-01-15T16:22:56;5.80;99.90
7516;DHT22;3799;47.184;8.538;2023-01-15T16:25:36;5.80;99.90
7516;DHT22;3799;47.184;8.538;2023-01-15T16:28:05;5.60;99.90
7516;DHT22;3799;47.184;8.538;2023-01-15T16:30:32;5.40;99.90
7516;DHT22;3799;47.184;8.538;2023-01-15T16:33:06;5.30;99.90
7516;DHT22;3799;47.184;8.538;2023-01-15T16:35:35;5.30;99.90
7516;DHT22;3799;47.184;8.538;2023-01-15T16:38:03;5.10;99.90
7516;DHT22;3799;47.184;8.538;2023-01-15T16:40:34;5.00;99.90
7516;DHT22;3799;47.184;8.538;2023-01-15T16:43:11;5.20;99.90
7516;DHT22;3799;47.184;8.538;2023-01-15T16:46:18;5.00;99.90
7516;DHT22;3799;47.184;8.538;2023-01-15T16:48:45;4.90;99.90
7516;DHT22;3799;47.184;8.538;2023-01-15T16:51:27;4.90;99.90
7516;DHT22;3799;47.184;8.538;2023-01-15T16:54:00;4.70;99.90
7516;DHT22;3799;47.184;8.538;2023-01-15T17:01:54;4.90;99.90
7516;DHT22;3799;47.184;8.538;2023-01-15T17:04:29;4.80;99.90
7516;DHT22;3799;47.184;8.538;2023-01-15T17:07:15;4.80;99.90
7516;DHT22;3799;47.184;8.538;2023-01-15T17:09:49;4.90;99.90
7516;DHT22;3799;47.184;8.538;2023-01-15T17:12:37;4.60;99.90
7516;DHT22;3799;47.184;8.538;2023-01-15T17:17:45;4.80;99.90
7516;DHT22;3799;47.184;8.538;2023-01-15T17:20:14;4.50;99.90
7516;DHT22;3799;47.184;8.538;2023-01-15T17:22:44;4.70;99.90
7516;DHT22;3799;47.184;8.538;2023-01-15T17:25:23;4.80;99.90
7516;DHT22;3799;47.184;8.538;2023-01-15T17:27:53;4.80;99.90
7516;DHT22;3799;47.184;8.538;2023-01-15T17:30:22;4.70;99.90
7516;DHT22;3799;47.184;8.538;2023-01-15T17:32:57;4.60;99.90
7516;DHT22;3799;47.184;8.538;2023-01-15T17:35:27;4.40;99.90
7516;DHT22;3799;47.184;8.538;2023-01-15T17:37:54;4.60;99.90
7516;DHT22;3799;47.184;8.538;2023-01-15T17:40:22;4.60;99.90
7516;DHT22;3799;47.184;8.538;2023-01-15T17:42:50;4.60;99.90
7516;DHT22;3799;47.184;8.538;2023-01-15T17:45:19;4.30;99.90
7516;DHT22;3799;47.184;8.538;2023-01-15T17:47:46;4.50;99.90
7516;DHT22;3799;47.184;8.538;2023-01-15T17:50:14;4.40;99.90
7516;DHT22;3799;47.184;8.538;2023-01-15T17:52:44;4.20;99.90
7516;DHT22;3799;47.184;8.538;2023-01-15T17:55:16;4.20;99.90
7516;DHT22;3799;47.184;8.538;2023-01-15T17:58:02;3.90;99.90
7516;DHT22;3799;47.184;8.538;2023-01-15T18:00:48;4.10;99.90
7516;DHT22;3799;47.184;8.538;2023-01-15T18:03:43;4.30;99.90
7516;DHT22;3799;47.184;8.538;2023-01-15T18:06:29;4.00;99.90
7516;DHT22;3799;47.184;8.538;2023-01-15T18:08:57;4.20;99.90
7516;DHT22;3799;47.184;8.538;2023-01-15T18:11:25;4.10;99.90
7516;DHT22;3799;47.184;8.538;2023-01-15T18:13:52;4.40;99.90
7516;DHT22;3799;47.184;8.538;2023-01-15T18:16:19;4.20;99.90
7516;DHT22;3799;47.184;8.538;2023-01-15T18:18:46;4.30;99.90
7516;DHT22;3799;47.184;8.538;2023-01-15T18:21:13;4.20;99.90
7516;DHT22;3799;47.184;8.538;2023-01-15T18:23:40;4.30;99.90
7516;DHT22;3799;47.184;8.538;2023-01-15T18:26:08;4.30;99.90
7516;DHT22;3799;47.184;8.538;2023-01-15T18:28:36;4.30;99.90
7516;DHT22;3799;47.184;8.538;2023-01-15T18:31:04;4.50;99.90
7516;DHT22;3799;47.184;8.538;2023-01-15T18:33:32;4.30;99.90
7516;DHT22;3799;47.184;8.538;2023-01-15T18:36:09;4.50;99.90
7516;DHT22;3799;47.184;8.538;2023-01-15T18:38:38;4.30;99.90
7516;DHT22;3799;47.184;8.538;2023-01-15T18:43:37;4.20;99.90
7516;DHT22;3799;47.184;8.538;2023-01-15T18:46:23;4.10;99.90
7516;DHT22;3799;47.184;8.538;2023-01-15T18:49:08;4.00;99.90